createdAt,value
2019-05-22T00:04:37.923Z,16.40
2019-05-22T00:09:46.251Z,16.34
2019-05-22T00:14:53.057Z,16.21
2019-05-22T00:19:58.831Z,16.21
2019-05-22T00:25:05.457Z,16.26
2019-05-22T00:30:13.707Z,16.22
2019-05-22T00:35:21.957Z,16.22
2019-05-22T00:40:29.813Z,16.16
2019-05-22T00:45:36.967Z,16.16
2019-05-22T00:51:00.458Z,16.10
2019-05-22T00:56:17.182Z,16.13
2019-05-22T01:01:28.384Z,16.03
2019-05-22T01:06:35.909Z,16.00
2019-05-22T01:11:45.549Z,16.01
2019-05-22T01:16:52.907Z,15.84
2019-05-22T01:22:00.869Z,15.80
2019-05-22T01:27:08.833Z,15.81
2019-05-22T01:32:26.638Z,15.72
2019-05-22T01:37:31.930Z,15.78
2019-05-22T01:42:40.180Z,15.64
2019-05-22T01:47:53.254Z,15.67
2019-05-22T01:52:59.644Z,15.66
2019-05-22T01:58:06.126Z,15.64
2019-05-22T02:03:12.081Z,15.62
2019-05-22T02:08:18.172Z,15.60
2019-05-22T02:13:33.781Z,15.60
2019-05-22T02:18:42.056Z,15.72
2019-05-22T02:23:49.000Z,15.66
2019-05-22T02:28:55.707Z,15.63
2019-05-22T02:34:06.001Z,15.55
2019-05-22T02:39:15.794Z,15.52
2019-05-22T02:44:24.056Z,15.54
2019-05-22T02:49:31.265Z,15.45
2019-05-22T02:54:37.946Z,15.50
2019-05-22T02:59:43.924Z,15.41
2019-05-22T03:05:01.824Z,15.38
2019-05-22T03:10:09.599Z,15.40
2019-05-22T03:15:18.321Z,15.24
2019-05-22T03:20:26.437Z,15.40
2019-05-22T03:25:33.631Z,15.39
2019-05-22T03:30:43.107Z,15.52
2019-05-22T03:35:51.815Z,15.68
2019-05-22T03:40:58.028Z,15.70
2019-05-22T03:46:06.696Z,15.77
2019-05-22T03:51:15.298Z,15.86
2019-05-22T03:56:22.618Z,15.94
2019-05-22T04:01:29.162Z,15.96
2019-05-22T04:06:35.348Z,16.08
2019-05-22T04:11:43.891Z,16.12
2019-05-22T04:16:50.280Z,16.22
2019-05-22T04:21:56.884Z,16.35
2019-05-22T04:27:04.841Z,16.56
2019-05-22T04:32:13.237Z,16.71
2019-05-22T04:37:20.186Z,16.84
2019-05-22T04:42:27.511Z,16.91
2019-05-22T04:47:35.648Z,17.01
2019-05-22T04:52:42.250Z,16.94
2019-05-22T04:57:48.708Z,17.01
2019-05-22T05:02:54.221Z,17.00
2019-05-22T05:07:59.731Z,17.00
2019-05-22T05:13:05.219Z,17.05
2019-05-22T05:18:10.440Z,17.12
2019-05-22T05:23:15.931Z,16.94
2019-05-22T05:28:22.195Z,16.86
2019-05-22T05:33:31.164Z,16.89
2019-05-22T05:38:39.768Z,16.94
2019-05-22T05:43:45.302Z,16.89
2019-05-22T05:48:52.959Z,16.91
2019-05-22T05:54:10.971Z,16.95
2019-05-22T05:59:16.965Z,17.21
2019-05-22T06:04:34.616Z,17.38
2019-05-22T06:09:35.525Z,17.46
2019-05-22T06:14:41.575Z,17.53
2019-05-22T06:19:53.719Z,17.49
2019-05-22T06:25:02.896Z,17.62
2019-05-22T06:30:13.146Z,17.77
2019-05-22T06:35:19.077Z,17.83
2019-05-22T06:40:26.233Z,18.24
2019-05-22T06:45:35.523Z,18.51
2019-05-22T06:50:39.645Z,18.65
2019-05-22T06:55:45.309Z,18.35
2019-05-22T07:00:51.109Z,18.46
2019-05-22T07:05:57.303Z,18.44
2019-05-22T07:11:03.189Z,18.43
2019-05-22T07:16:08.875Z,18.45
2019-05-22T07:21:15.674Z,18.62
2019-05-22T07:26:20.974Z,18.96
2019-05-22T07:31:28.154Z,19.60
2019-05-22T07:36:34.423Z,20.17
2019-05-22T07:41:40.406Z,19.99
2019-05-22T07:46:46.555Z,20.03
2019-05-22T07:52:00.727Z,20.01
2019-05-22T07:57:00.471Z,20.13
2019-05-22T08:02:09.732Z,20.07
2019-05-22T08:07:17.943Z,20.02
2019-05-22T08:12:24.514Z,19.77
2019-05-22T08:17:30.937Z,20.04
2019-05-22T08:22:38.125Z,19.96
2019-05-22T08:27:44.143Z,20.09
2019-05-22T08:32:49.764Z,20.30
2019-05-22T08:37:56.962Z,20.34
2019-05-22T08:43:02.947Z,20.39
2019-05-22T08:48:08.784Z,20.48
2019-05-22T08:53:16.447Z,20.38
2019-05-22T08:58:23.526Z,20.33
2019-05-22T09:03:29.362Z,20.16
2019-05-22T09:08:35.273Z,20.17
2019-05-22T09:13:41.439Z,19.95
2019-05-22T09:18:47.262Z,20.01
2019-05-22T09:23:53.248Z,20.12
2019-05-22T09:28:59.204Z,20.10
2019-05-22T09:34:05.296Z,20.05
2019-05-22T09:39:12.425Z,20.19
2019-05-22T09:44:17.699Z,19.98
2019-05-22T09:49:24.158Z,20.07
2019-05-22T09:54:31.794Z,19.99
2019-05-22T09:59:37.202Z,19.86
2019-05-22T10:04:43.550Z,20.06
2019-05-22T10:09:48.991Z,20.72
2019-05-22T10:14:54.530Z,20.94
2019-05-22T10:20:00.325Z,20.80
2019-05-22T10:25:15.910Z,20.68
2019-05-22T10:30:16.877Z,20.66
2019-05-22T10:35:27.027Z,20.77
2019-05-22T10:40:33.505Z,20.55
2019-05-22T10:45:39.468Z,20.77
2019-05-22T10:50:44.896Z,20.72
2019-05-22T10:55:51.853Z,20.36
2019-05-22T11:00:58.035Z,20.27
2019-05-22T11:06:07.551Z,20.48
2019-05-22T11:11:17.361Z,20.39
2019-05-22T11:16:23.778Z,20.67
2019-05-22T11:21:29.140Z,20.65
2019-05-22T11:26:35.180Z,20.88
2019-05-22T11:31:40.829Z,21.05
2019-05-22T11:36:46.311Z,21.04
2019-05-22T11:41:52.181Z,20.99
2019-05-22T11:46:59.020Z,21.30
2019-05-22T11:52:05.662Z,21.46
2019-05-22T11:57:12.061Z,21.63
2019-05-22T12:02:18.932Z,21.85
2019-05-22T12:07:24.739Z,21.68
2019-05-22T12:12:35.178Z,21.91
2019-05-22T12:17:39.540Z,21.89
2019-05-22T12:22:44.976Z,21.93
2019-05-22T12:27:50.236Z,22.03
2019-05-22T12:32:57.122Z,21.89
2019-05-22T12:38:04.002Z,22.03
2019-05-22T12:43:11.557Z,22.06
2019-05-22T12:48:18.293Z,22.42
2019-05-22T12:53:24.781Z,22.70
2019-05-22T12:58:32.359Z,23.32
2019-05-22T13:03:40.190Z,24.96
2019-05-22T13:08:45.797Z,25.74
2019-05-22T13:13:51.854Z,26.34
2019-05-22T13:18:57.654Z,27.23
2019-05-22T13:24:05.971Z,27.55
2019-05-22T13:29:14.186Z,27.63
2019-05-22T13:34:20.621Z,27.17
2019-05-22T13:39:27.613Z,27.26
2019-05-22T13:44:32.872Z,27.32
2019-05-22T13:49:40.701Z,27.61
2019-05-22T13:54:46.530Z,26.84
2019-05-22T13:59:52.601Z,28.50
2019-05-22T14:04:59.810Z,28.92
2019-05-22T14:10:07.468Z,29.50
2019-05-22T14:15:13.380Z,30.08
2019-05-22T14:20:19.811Z,28.46
2019-05-22T14:25:26.161Z,28.92
2019-05-22T14:30:32.128Z,30.28
2019-05-22T14:35:48.117Z,30.65
2019-05-22T14:40:47.251Z,30.51
2019-05-22T14:45:52.799Z,30.51
2019-05-22T14:50:59.186Z,29.87
2019-05-22T14:56:10.394Z,30.34
2019-05-22T15:01:14.165Z,29.30
2019-05-22T15:06:20.943Z,29.38
2019-05-22T15:11:26.504Z,29.37
2019-05-22T15:16:32.942Z,28.27
2019-05-22T15:21:38.622Z,28.71
2019-05-22T15:26:44.144Z,28.82
2019-05-22T15:31:49.559Z,28.92
2019-05-22T15:36:55.468Z,29.47
2019-05-22T15:42:05.065Z,30.02
2019-05-22T15:47:11.146Z,29.02
2019-05-22T15:52:19.880Z,29.68
2019-05-22T15:57:26.648Z,29.05
2019-05-22T16:02:33.787Z,29.30
2019-05-22T16:07:40.368Z,28.51
2019-05-22T16:12:47.347Z,26.65
2019-05-22T16:18:10.337Z,25.07
2019-05-22T16:23:04.259Z,24.54
2019-05-22T16:28:10.731Z,25.20
2019-05-22T16:33:17.485Z,26.90
2019-05-22T16:38:24.648Z,28.75
2019-05-22T16:43:47.371Z,28.96
2019-05-22T16:48:38.712Z,29.47
2019-05-22T16:53:47.030Z,30.06
2019-05-22T16:58:53.078Z,29.65
2019-05-22T17:04:01.602Z,28.65
2019-05-22T17:09:10.005Z,28.19
2019-05-22T17:14:17.461Z,26.55
2019-05-22T17:19:27.434Z,25.65
2019-05-22T17:24:34.011Z,23.92
2019-05-22T17:29:37.634Z,22.97
2019-05-22T17:34:43.109Z,22.28
2019-05-22T17:39:50.887Z,21.81
2019-05-22T17:44:57.621Z,21.47
2019-05-22T17:50:03.978Z,21.08
2019-05-22T17:55:10.497Z,20.79
2019-05-22T18:00:18.819Z,20.53
2019-05-22T18:05:25.904Z,20.40
2019-05-22T18:10:34.062Z,20.14
2019-05-22T18:15:40.209Z,19.99
2019-05-22T18:20:47.769Z,19.93
2019-05-22T18:25:52.670Z,19.89
2019-05-22T18:30:58.437Z,19.65
2019-05-22T18:36:03.775Z,19.55
2019-05-22T18:41:09.025Z,19.41
2019-05-22T18:46:14.933Z,19.12
2019-05-22T18:51:20.537Z,18.98
2019-05-22T18:56:26.038Z,18.85
2019-05-22T19:01:31.715Z,18.73
2019-05-22T19:06:37.084Z,18.66
2019-05-22T19:11:42.823Z,18.58
2019-05-22T19:16:48.222Z,18.45
2019-05-22T19:21:53.805Z,18.34
2019-05-22T19:26:59.449Z,18.29
2019-05-22T19:32:04.772Z,18.25
2019-05-22T19:37:10.142Z,18.20
2019-05-22T19:42:16.291Z,18.10
2019-05-22T19:47:23.469Z,18.22
2019-05-22T19:52:41.012Z,18.20
2019-05-22T19:57:37.331Z,18.27
2019-05-22T20:02:44.098Z,18.18
2019-05-22T20:07:49.658Z,18.04
2019-05-22T20:12:56.161Z,18.05
2019-05-22T20:18:02.405Z,17.97
2019-05-22T20:23:08.516Z,17.72
2019-05-22T20:28:15.155Z,17.73
2019-05-22T20:33:20.774Z,17.69
2019-05-22T20:38:26.932Z,17.67
2019-05-22T20:43:33.434Z,17.75
2019-05-22T20:48:38.879Z,17.76
2019-05-22T20:53:54.155Z,17.60
2019-05-22T20:58:53.692Z,17.58
2019-05-22T21:04:03.850Z,17.43
2019-05-22T21:09:09.377Z,17.39
2019-05-22T21:14:15.740Z,17.43
2019-05-22T21:19:23.678Z,17.31
2019-05-22T21:24:30.106Z,17.09
2019-05-22T21:29:35.720Z,16.92
2019-05-22T21:34:42.057Z,16.79
2019-05-22T21:39:47.908Z,16.69
2019-05-22T21:44:53.348Z,16.44
2019-05-22T21:49:58.762Z,16.23
2019-05-22T21:55:08.820Z,16.15
2019-05-22T22:00:34.990Z,15.96
2019-05-22T22:05:42.784Z,15.84
2019-05-22T22:10:50.086Z,15.75
2019-05-22T22:15:55.928Z,15.66
2019-05-22T22:21:01.529Z,15.64
2019-05-22T22:26:24.059Z,15.59
2019-05-22T22:31:17.116Z,15.56
2019-05-22T22:36:22.984Z,15.50
2019-05-22T22:41:28.313Z,15.42
2019-05-22T22:46:38.490Z,15.27
2019-05-22T22:51:44.613Z,15.21
2019-05-22T22:56:49.772Z,15.18
2019-05-22T23:01:57.584Z,15.27
2019-05-22T23:07:06.235Z,15.19
2019-05-22T23:12:14.171Z,15.18
2019-05-22T23:17:20.959Z,15.09
2019-05-22T23:22:26.723Z,15.05
2019-05-22T23:27:33.614Z,14.92
2019-05-22T23:32:41.501Z,14.84
2019-05-22T23:37:46.817Z,14.82
2019-05-22T23:42:52.701Z,14.72
2019-05-22T23:48:05.819Z,14.70
2019-05-22T23:53:12.574Z,14.82
2019-05-22T23:58:19.673Z,14.83
